EST,Max TemperatureF,Mean TemperatureF,Min TemperatureF,Max Dew PointF,MeanDew PointF,Min DewpointF,Max Humidity, Mean Humidity, Min Humidity, Max Sea Level PressureIn, Mean Sea Level PressureIn, Min Sea Level PressureIn, Max VisibilityMiles, Mean VisibilityMiles, Min VisibilityMiles, Max Wind SpeedMPH, Mean Wind SpeedMPH, Max Gust SpeedMPH,PrecipitationIn, CloudCover, Events, WindDirDegrees
2013-11-1,91,81,71,74,72,67,100,74,47,30.03,29.96,29.89,10,10,10,18,7,22,0.01,5,,181
2013-11-2,88,77,66,72,68,62,100,73,46,29.96,29.89,29.83,10,8,0,21,9,25,0.00,5,Fog,243
2013-11-3,80,72,64,61,55,50,81,59,37,30.09,30.01,29.94,10,10,10,23,13,29,0.00,3,,349
2013-11-4,82,76,69,65,59,51,68,56,44,30.14,30.10,30.06,10,10,8,26,17,36,0.01,7,Rain,57
2013-11-5,85,79,72,71,68,65,87,73,58,30.14,30.10,30.07,10,10,9,23,14,32,0.02,7,Rain,79
2013-11-6,84,78,71,71,67,64,100,78,55,30.10,30.06,30.04,10,10,10,15,8,20,T,2,,71
2013-11-7,82,74,66,72,68,66,100,81,62,30.04,30.00,29.96,10,9,2,15,7,20,0.00,0,,349
2013-11-8,81,74,66,70,68,66,100,85,69,30.10,30.05,29.98,10,10,10,24,14,32,T,5,,12
2013-11-9,82,78,73,68,67,66,79,71,62,30.17,30.13,30.08,10,10,10,22,12,28,0.00,6,,63
2013-11-10,83,75,66,71,67,65,100,81,62,30.17,30.12,30.09,10,10,10,15,6,18,0.00,4,,23
2013-11-11,82,74,65,72,68,65,100,84,67,30.16,30.11,30.09,10,10,7,16,5,20,0.00,2,,42
2013-11-12,82,73,64,72,67,65,100,82,63,30.11,30.06,30.01,10,10,6,14,6,17,0.00,1,,7
2013-11-13,74,70,66,66,57,49,90,71,52,30.28,30.17,30.05,10,10,8,28,18,39,0.01,6,Rain,11
2013-11-14,76,71,66,59,54,50,66,56,46,30.30,30.23,30.18,10,10,10,21,14,30,0.00,5,,77
2013-11-15,81,75,69,69,64,59,87,71,54,30.19,30.13,30.09,10,10,8,17,10,23,0.02,3,Rain,101
2013-11-16,84,77,69,71,67,64,97,76,55,30.13,30.09,30.04,10,10,8,8,10,9,0.09,6,Rain,102
2013-11-17,84,78,71,73,71,69,100,83,65,30.10,30.06,30.02,10,10,10,21,10,24,0.00,4,,125
2013-11-18,88,77,66,72,70,66,100,75,50,30.04,29.99,29.94,10,9,2,14,5,16,0.00,3,,214
2013-11-19,80,74,67,72,69,66,100,84,67,29.96,29.93,29.88,10,10,4,16,7,20,T,4,,339
2013-11-20,78,75,72,73,72,69,100,88,76,30.11,30.02,29.95,10,8,1,21,11,28,2.59,8,Rain-Thunderstorm,77
2013-11-21,78,75,71,73,71,70,100,91,82,30.18,30.14,30.09,10,8,0,21,13,28,4.23,8,Fog-Rain,91
2013-11-22,82,77,72,70,67,63,87,75,62,30.20,30.15,30.12,10,10,10,20,12,25,T,4,,76
2013-11-23,81,72,62,67,65,63,100,79,58,30.12,30.06,30.01,10,10,10,13,4,17,0.00,1,,74
2013-11-24,78,70,61,68,63,57,100,83,66,30.22,30.12,30.02,10,10,5,25,13,33,0.04,6,Rain,16
2013-11-25,77,73,68,68,60,56,97,76,54,30.25,30.18,30.09,10,10,3,24,15,32,0.02,7,Rain,84
2013-11-26,83,78,72,74,71,66,94,82,69,30.07,29.94,29.80,10,10,9,24,14,32,0.01,5,Rain,142
2013-11-27,75,63,50,74,64,46,100,77,53,30.15,29.87,29.76,10,10,9,28,15,32,0.01,4,Rain,252
2013-11-28,71,56,41,58,47,37,93,73,53,30.30,30.24,30.16,10,10,10,20,10,24,T,4,,327
2013-11-29,77,66,54,62,58,54,93,72,50,30.32,30.27,30.25,10,10,10,21,11,29,0.00,5,,17
2013-11-30,79,70,60,67,63,60,100,79,58,30.26,30.21,30.16,10,9,2,20,10,26,0.32,4,Rain,32